Time;durP1;ratioP1;P1;durP2;ratioP2;P2;SDS_P1;SDS_P2;PMS_P1;PMS_P2;Temp;Humidity;BMP_temperature;BMP_pressure;BME280_temperature;BME280_humidity;BME280_pressure;Samples;Min_cycle;Max_cycle;Signal;HPM_P1;HPM_P2
2023/08/15 00:01:02;;;;;;;;;47.00;42.00;;;;;25.10;56.34;101078.48;109972;1265;18322;-77
2023/08/15 00:03:30;;;;;;;;;41.00;37.00;;;;;25.07;56.61;101077.80;110000;1265;20202;-77
2023/08/15 00:05:56;;;;;;;;;;;;;;;25.02;56.54;101072.15;109977;1251;20583;-76
2023/08/15 00:08:22;;;;;;;;;40.00;36.00;;;;;25.05;56.27;101066.80;110016;1260;19726;-77
2023/08/15 00:10:48;;;;;;;;;47.00;39.00;;;;;25.07;56.50;101063.38;109971;1251;20003;-76
2023/08/15 00:13:14;;;;;;;;;39.00;38.00;;;;;25.01;56.52;101065.31;109979;1251;22991;-77
2023/08/15 00:15:40;;;;;;;;;38.00;34.00;;;;;24.93;56.96;101067.02;110001;1251;20969;-77
2023/08/15 00:18:06;;;;;;;;;37.00;35.00;;;;;24.88;57.01;101064.92;110063;1251;22881;-75
2023/08/15 00:20:32;;;;;;;;;37.50;35.00;;;;;24.87;57.24;101061.27;110001;1266;19097;-76
2023/08/15 00:22:58;;;;;;;;;34.50;34.00;;;;;24.92;57.69;101054.37;109939;1250;18380;-77
2023/08/15 00:25:24;;;;;;;;;42.00;36.00;;;;;24.90;58.16;101054.82;109981;1259;18633;-77
2023/08/15 00:27:50;;;;;;;;;36.50;33.50;;;;;24.88;58.42;101055.99;110014;1266;19132;-77
2023/08/15 00:30:16;;;;;;;;;38.50;35.00;;;;;24.87;58.50;101054.69;109983;1265;21056;-78
2023/08/15 00:32:42;;;;;;;;;37.00;34.00;;;;;24.88;58.77;101054.23;109980;1260;20280;-76
2023/08/15 00:35:08;;;;;;;;;37.00;35.00;;;;;24.86;58.79;101053.55;109981;1265;22142;-76
2023/08/15 00:37:34;;;;;;;;;38.00;35.50;;;;;24.87;58.80;101051.17;109960;1266;18433;-76
2023/08/15 00:40:00;;;;;;;;;40.00;37.00;;;;;24.87;58.90;101049.65;109951;1250;18671;-76
2023/08/15 00:42:26;;;;;;;;;47.00;39.00;;;;;24.90;58.90;101048.73;109999;1251;20494;-76
2023/08/15 00:44:51;;;;;;;;;43.00;41.00;;;;;24.92;58.86;101043.73;109927;1265;18377;-77
2023/08/15 00:47:17;;;;;;;;;42.00;38.00;;;;;24.92;58.94;101042.35;109957;1250;19850;-76
2023/08/15 00:49:43;;;;;;;;;38.50;36.50;;;;;24.95;59.09;101042.33;109967;1266;19023;-77
2023/08/15 00:52:09;;;;;;;;;45.00;38.00;;;;;24.93;59.02;101041.73;109952;1250;19788;-76
2023/08/15 00:54:35;;;;;;;;;43.00;38.00;;;;;24.91;59.11;101040.23;110003;1250;18548;-76
2023/08/15 00:57:01;;;;;;;;;39.00;37.50;;;;;24.88;59.29;101038.30;110010;1250;19291;-76
2023/08/15 00:59:27;;;;;;;;;38.00;37.00;;;;;24.83;59.18;101039.06;110006;1250;19815;-76
2023/08/15 01:01:53;;;;;;;;;36.50;31.50;;;;;24.83;59.28;101037.14;110045;1265;18486;-76
2023/08/15 01:04:19;;;;;;;;;36.50;34.00;;;;;24.82;59.25;101035.67;110034;1266;19120;-77
2023/08/15 01:06:45;;;;;;;;;39.00;37.50;;;;;24.81;59.30;101037.77;110015;1266;18349;-76
2023/08/15 01:09:11;;;;;;;;;39.00;37.00;;;;;24.84;59.47;101038.06;109932;1266;18639;-76
2023/08/15 01:11:37;;;;;;;;;39.00;37.00;;;;;24.78;59.25;101035.33;109937;1260;19073;-77
2023/08/15 01:14:03;;;;;;;;;41.50;40.50;;;;;24.80;59.44;101037.27;109904;1251;19739;-77
2023/08/15 01:16:29;;;;;;;;;32.00;32.00;;;;;24.77;59.42;101039.07;109965;1265;18599;-77
2023/08/15 01:18:55;;;;;;;;;44.50;39.00;;;;;24.81;59.30;101034.15;109931;1258;20788;-76
2023/08/15 01:24:24;;;;;;;;;41.50;37.50;;;;;24.80;59.50;101034.16;109969;1266;22204;-77
2023/08/15 01:26:50;;;;;;;;;42.50;38.00;;;;;24.79;59.59;101034.89;110014;1265;21953;-75
2023/08/15 01:29:16;;;;;;;;;41.00;38.00;;;;;24.78;59.55;101032.32;110039;1250;21448;-79
2023/08/15 01:31:42;;;;;;;;;38.50;37.00;;;;;24.73;59.52;101032.31;109983;1266;18754;-77
2023/08/15 01:34:08;;;;;;;;;35.00;35.00;;;;;24.72;59.66;101030.67;109963;1266;19362;-77
2023/08/15 01:36:34;;;;;;;;;43.00;41.00;;;;;24.73;59.75;101036.48;109959;1265;18960;-78
2023/08/15 01:39:00;;;;;;;;;40.00;38.00;;;;;24.75;59.72;101037.50;109976;1251;18710;-78
2023/08/15 01:41:26;;;;;;;;;45.50;38.00;;;;;24.73;59.79;101035.28;109974;1250;22122;-78
2023/08/15 01:43:52;;;;;;;;;37.00;36.00;;;;;24.70;60.11;101034.77;110002;1251;20107;-77
2023/08/15 01:46:18;;;;;;;;;43.00;38.00;;;;;24.63;60.19;101031.05;109983;1250;20259;-75
2023/08/15 01:48:44;;;;;;;;;48.00;41.00;;;;;24.64;60.07;101032.08;109989;1251;20765;-76
2023/08/15 01:51:10;;;;;;;;;46.50;41.00;;;;;24.64;60.23;101029.67;110001;1260;20134;-77
2023/08/15 01:53:36;;;;;;;;;42.00;38.00;;;;;24.68;60.09;101031.11;110009;1250;22428;-76
2023/08/15 01:56:02;;;;;;;;;42.00;40.00;;;;;24.65;60.14;101028.02;110010;1265;19431;-76
2023/08/15 01:58:28;;;;;;;;;43.50;41.00;;;;;24.55;60.67;101024.67;109982;1250;19944;-77
2023/08/15 02:00:54;;;;;;;;;44.00;39.00;;;;;24.62;60.36;101020.15;109996;1266;18718;-77
2023/08/15 02:03:20;;;;;;;;;44.00;40.50;;;;;24.60;60.41;101020.40;110006;1251;20788;-77
2023/08/15 02:05:46;;;;;;;;;45.00;41.00;;;;;24.59;60.29;101025.08;109954;1251;19980;-77
2023/08/15 02:08:12;;;;;;;;;41.33;38.33;;;;;24.58;60.53;101024.86;109954;1266;18751;-77
2023/08/15 02:10:39;;;;;;;;;48.00;40.50;;;;;24.55;60.44;101023.25;109997;1266;19978;-77
2023/08/15 02:13:05;;;;;;;;;46.00;39.00;;;;;24.57;60.21;101026.95;110030;1260;22219;-77
2023/08/15 02:15:31;;;;;;;;;41.00;38.00;;;;;24.55;60.48;101032.72;110027;1265;18673;-78
2023/08/15 02:17:57;;;;;;;;;45.00;40.50;;;;;24.55;60.41;101029.60;110009;1250;20725;-77
2023/08/15 02:20:23;;;;;;;;;43.00;38.00;;;;;24.49;60.91;101028.77;110027;1250;22224;-78
2023/08/15 02:22:49;;;;;;;;;45.50;39.50;;;;;24.50;60.52;101031.12;110024;1265;22721;-77
2023/08/15 02:25:15;;;;;;;;;44.00;39.00;;;;;24.47;60.94;101034.55;110006;1266;21835;-77
2023/08/15 02:27:41;;;;;;;;;44.50;38.50;;;;;24.48;60.81;101036.06;109988;1265;22494;-80
2023/08/15 02:30:08;;;;;;;;;44.00;39.50;;;;;24.49;60.58;101036.73;109998;1266;22085;-77
2023/08/15 02:32:34;;;;;;;;;49.00;42.00;;;;;24.47;60.75;101038.98;110026;1250;21511;-77
2023/08/15 02:35:01;;;;;;;;;48.00;40.00;;;;;24.42;60.88;101042.20;109984;1250;23233;-76
2023/08/15 02:37:27;;;;;;;;;50.00;42.00;;;;;24.36;60.93;101041.11;109972;1266;19094;-76
2023/08/15 02:39:53;;;;;;;;;46.00;41.00;;;;;24.39;61.03;101046.23;109965;1250;20805;-77
2023/08/15 02:42:19;;;;;;;;;45.50;42.00;;;;;24.39;60.89;101050.67;110007;1266;18613;-76
2023/08/15 02:44:45;;;;;;;;;48.50;41.00;;;;;24.40;60.78;101048.63;110027;1265;18770;-76
2023/08/15 02:47:11;;;;;;;;;49.00;41.00;;;;;24.42;60.68;101051.41;110019;1259;20826;-77
2023/08/15 02:49:38;;;;;;;;;45.00;41.00;;;;;24.39;60.75;101048.16;110009;1266;18705;-76
2023/08/15 02:52:04;;;;;;;;;45.00;41.00;;;;;24.35;61.02;101049.23;110032;1250;20205;-76
2023/08/15 02:54:30;;;;;;;;;49.00;42.00;;;;;24.34;60.90;101047.37;110050;1250;19408;-76
2023/08/15 02:56:56;;;;;;;;;47.50;41.50;;;;;24.29;61.04;101047.85;110011;1251;22130;-76
2023/08/15 02:59:22;;;;;;;;;48.00;41.00;;;;;24.28;61.21;101050.21;110015;1251;22428;-77
2023/08/15 03:01:49;;;;;;;;;53.50;43.00;;;;;24.25;61.17;101049.62;109982;1259;19611;-76
2023/08/15 03:04:15;;;;;;;;;47.00;42.00;;;;;24.23;61.14;101050.27;109955;1265;22184;-76
2023/08/15 03:06:42;;;;;;;;;49.00;43.33;;;;;24.21;61.29;101051.93;109961;1266;21874;-77
2023/08/15 03:09:08;;;;;;;;;49.00;43.00;;;;;24.22;61.31;101053.18;109961;1266;19424;-77
2023/08/15 03:11:34;;;;;;;;;47.00;40.50;;;;;24.21;61.25;101050.63;110011;1259;18557;-77
2023/08/15 03:14:00;;;;;;;;;51.50;43.50;;;;;24.12;61.38;101044.34;109997;1251;20195;-77
2023/08/15 03:16:26;;;;;;;;;45.00;40.00;;;;;24.15;61.39;101040.70;110000;1251;19243;-76
2023/08/15 03:18:52;;;;;;;;;43.00;40.00;;;;;24.11;61.62;101038.16;110025;1251;22293;-77
2023/08/15 03:21:18;;;;;;;;;42.50;39.00;;;;;24.11;61.21;101038.77;110032;1266;22223;-77
2023/08/15 03:23:44;;;;;;;;;46.50;41.00;;;;;24.10;61.30;101039.65;110010;1250;20929;-77
2023/08/15 03:26:10;;;;;;;;;39.50;37.50;;;;;24.12;61.24;101040.40;109993;1250;20034;-76
2023/08/15 03:28:36;;;;;;;;;43.00;40.00;;;;;24.09;61.21;101036.16;109966;1265;22741;-77
2023/08/15 03:31:02;;;;;;;;;46.50;40.00;;;;;24.08;60.86;101033.75;109966;1250;22389;-77
2023/08/15 03:33:28;;;;;;;;;39.00;38.00;;;;;24.04;61.06;101031.59;109961;1251;21165;-77
2023/08/15 03:35:55;;;;;;;;;44.00;39.00;;;;;24.05;60.67;101034.33;109988;1251;20396;-77
2023/08/15 03:38:21;;;;;;;;;45.00;41.00;;;;;24.01;60.90;101035.23;109951;1266;22219;-78
2023/08/15 03:40:47;;;;;;;;;40.33;38.33;;;;;23.98;60.62;101037.55;109992;1266;20316;-76
2023/08/15 03:43:13;;;;;;;;;45.50;41.50;;;;;24.02;60.60;101038.23;109991;1251;22680;-77
2023/08/15 03:45:39;;;;;;;;;48.00;40.00;;;;;24.00;60.49;101042.85;110006;1251;20957;-77
2023/08/15 03:48:05;;;;;;;;;43.00;39.00;;;;;24.03;60.40;101045.40;109989;1265;18746;-77
2023/08/15 03:50:31;;;;;;;;;47.67;38.33;;;;;24.05;60.12;101043.30;110002;1266;18939;-80
2023/08/15 03:52:57;;;;;;;;;43.00;39.00;;;;;24.07;60.24;101043.66;109988;1251;22213;-85
2023/08/15 03:55:23;;;;;;;;;42.50;40.00;;;;;24.01;60.31;101048.09;109953;1250;22657;-88
2023/08/15 03:57:49;;;;;;;;;44.00;38.00;;;;;23.94;60.72;101053.02;110050;1265;20304;-83
2023/08/15 04:00:18;;;;;;;;;42.00;39.00;;;;;23.96;60.65;101059.52;110033;1251;21998;-83
2023/08/15 04:02:44;;;;;;;;;42.33;39.00;;;;;23.93;60.41;101055.43;110036;1250;22248;-85
2023/08/15 04:05:11;;;;;;;;;43.50;39.50;;;;;23.96;60.53;101057.77;110028;1250;20021;-84
2023/08/15 04:07:37;;;;;;;;;41.50;38.50;;;;;23.97;60.22;101061.64;110051;1265;19359;-84
2023/08/15 04:10:03;;;;;;;;;46.00;40.00;;;;;23.93;60.28;101057.39;109982;1266;19472;-85
2023/08/15 04:12:29;;;;;;;;;41.00;39.00;;;;;23.93;60.45;101055.81;110017;1260;22361;-83
2023/08/15 04:14:55;;;;;;;;;36.00;36.00;;;;;23.90;60.12;101054.46;110022;1250;20815;-83
2023/08/15 04:17:21;;;;;;;;;43.50;39.00;;;;;23.94;59.92;101060.23;110002;1251;22744;-84
2023/08/15 04:19:47;;;;;;;;;48.00;41.50;;;;;23.94;59.95;101065.21;109990;1251;20473;-84
2023/08/15 04:22:13;;;;;;;;;46.00;40.00;;;;;23.90;60.04;101059.50;109965;1250;21101;-87
2023/08/15 04:24:39;;;;;;;;;39.00;37.00;;;;;23.91;59.68;101059.48;109993;1250;20093;-86
2023/08/15 04:27:05;;;;;;;;;45.00;39.00;;;;;23.89;59.54;101060.92;109981;1266;18805;-86
2023/08/15 04:29:31;;;;;;;;;44.50;40.50;;;;;23.94;59.48;101065.27;110035;1266;19260;-87
2023/08/15 04:31:57;;;;;;;;;42.00;39.00;;;;;23.97;59.34;101067.77;110036;1250;20188;-84
2023/08/15 04:34:23;;;;;;;;;43.50;38.00;;;;;23.95;58.97;101071.89;110017;1259;20120;-85
2023/08/15 04:36:49;;;;;;;;;36.00;34.00;;;;;23.91;59.20;101076.63;110075;1259;20954;-84
2023/08/15 04:39:15;;;;;;;;;35.50;28.50;;;;;23.95;59.10;101074.73;110038;1265;22818;-84
2023/08/15 04:41:41;;;;;;;;;41.50;36.50;;;;;24.00;58.63;101071.53;110025;1251;20152;-84
2023/08/15 04:44:08;;;;;;;;;41.00;38.00;;;;;24.04;58.31;101067.73;109971;1265;19845;-82
2023/08/15 04:46:34;;;;;;;;;41.00;36.00;;;;;23.96;58.16;101068.22;109934;1266;18681;-83
2023/08/15 04:49:00;;;;;;;;;35.00;33.50;;;;;23.96;57.93;101071.98;110022;1265;18822;-85
2023/08/15 04:51:26;;;;;;;;;42.00;35.50;;;;;24.00;57.94;101068.41;109972;1250;19878;-84
2023/08/15 04:53:52;;;;;;;;;36.00;34.00;;;;;23.99;58.03;101065.35;109979;1258;20145;-85
2023/08/15 04:56:18;;;;;;;;;39.00;34.00;;;;;24.03;57.83;101070.64;110014;1265;18623;-85
2023/08/15 04:58:44;;;;;;;;;37.00;34.50;;;;;23.99;57.52;101074.60;110031;1266;19752;-86
2023/08/15 05:01:10;;;;;;;;;36.50;35.00;;;;;24.00;57.25;101076.29;110037;1251;20099;-86
2023/08/15 05:03:36;;;;;;;;;31.00;31.00;;;;;24.07;57.32;101076.79;110041;1259;20083;-85
2023/08/15 05:06:02;;;;;;;;;32.00;31.00;;;;;24.08;56.68;101075.08;110008;1251;20773;-88
2023/08/15 05:08:28;;;;;;;;;36.00;30.00;;;;;24.09;56.77;101075.84;110010;1250;22687;-88
2023/08/15 05:10:54;;;;;;;;;36.00;32.50;;;;;24.09;56.69;101074.63;110023;1266;21333;-87
2023/08/15 05:13:20;;;;;;;;;37.00;36.00;;;;;24.13;56.37;101076.85;110070;1266;20683;-86
2023/08/15 05:15:46;;;;;;;;;35.00;32.50;;;;;24.14;56.39;101073.45;110056;1265;18657;-85
2023/08/15 05:18:13;;;;;;;;;36.50;34.50;;;;;24.18;56.47;101078.52;110016;1251;20151;-83
2023/08/15 05:20:39;;;;;;;;;31.00;28.00;;;;;24.21;56.10;101081.34;110015;1259;19405;-88
2023/08/15 05:23:05;;;;;;;;;31.00;28.00;;;;;24.19;56.17;101089.45;110000;1250;18550;-86
2023/08/15 05:25:31;;;;;;;;;29.00;28.00;;;;;24.19;56.33;101094.11;110049;1266;18686;-84
2023/08/15 05:27:57;;;;;;;;;32.00;31.00;;;;;24.28;55.82;101096.58;110038;1265;19376;-86
2023/08/15 05:30:23;;;;;;;;;34.00;31.00;;;;;24.27;55.97;101101.19;110029;1250;21158;-84
2023/08/15 05:32:49;;;;;;;;;33.33;31.00;;;;;24.31;55.87;101099.57;110064;1266;21852;-85
2023/08/15 05:35:15;;;;;;;;;31.00;28.00;;;;;24.31;55.70;101101.55;110100;1251;20808;-85
2023/08/15 05:37:41;;;;;;;;;33.00;29.00;;;;;24.34;55.57;101106.57;110139;1250;21510;-83
2023/08/15 05:40:07;;;;;;;;;29.00;28.00;;;;;24.37;55.24;101107.20;110125;1250;22731;-84
2023/08/15 05:42:33;;;;;;;;;30.00;28.00;;;;;24.42;55.26;101116.03;110040;1250;22137;-84
2023/08/15 05:44:59;;;;;;;;;25.00;24.00;;;;;24.43;55.24;101113.01;110024;1265;18655;-83
2023/08/15 05:47:25;;;;;;;;;31.00;28.00;;;;;24.48;55.15;101114.34;110014;1265;18832;-85
2023/08/15 05:49:51;;;;;;;;;28.00;27.00;;;;;24.47;54.87;101118.23;110020;1266;22146;-87
2023/08/15 05:52:17;;;;;;;;;31.00;28.00;;;;;24.48;54.88;101116.97;109999;1250;22631;-86
2023/08/15 05:54:43;;;;;;;;;31.00;29.00;;;;;24.54;54.76;101118.29;109961;1265;20165;-86
2023/08/15 05:57:09;;;;;;;;;31.00;29.00;;;;;24.50;55.00;101113.94;109935;1266;20764;-85
2023/08/15 05:59:35;;;;;;;;;28.00;25.00;;;;;24.54;54.70;101110.23;109950;1251;19749;-86
2023/08/15 06:02:02;;;;;;;;;26.50;25.00;;;;;24.55;54.81;101108.48;110050;1265;18705;-90
2023/08/15 06:04:28;;;;;;;;;28.00;25.50;;;;;24.59;54.56;101100.28;110019;1251;22364;-86
2023/08/15 06:06:54;;;;;;;;;32.33;28.67;;;;;24.62;54.37;101102.45;110019;1250;20015;-84
2023/08/15 06:09:20;;;;;;;;;29.50;28.00;;;;;24.54;54.50;101095.98;110024;1266;19931;-80
2023/08/15 06:11:46;;;;;;;;;28.50;25.00;;;;;24.59;54.33;101095.61;109956;1266;19110;-79
2023/08/15 06:14:12;;;;;;;;;25.67;23.67;;;;;24.58;54.60;101097.00;109942;1265;18718;-79
2023/08/15 06:16:38;;;;;;;;;25.50;25.00;;;;;24.58;54.78;101094.65;109958;1266;18867;-76
2023/08/15 06:19:04;;;;;;;;;29.50;27.00;;;;;24.60;55.08;101086.58;109940;1251;23069;-79
2023/08/15 06:21:30;;;;;;;;;27.50;27.50;;;;;24.68;54.88;101087.86;109956;1266;22784;-77
2023/08/15 06:23:56;;;;;;;;;31.00;29.00;;;;;24.77;54.49;101091.13;109966;1251;20186;-79
2023/08/15 06:26:22;;;;;;;;;26.00;24.50;;;;;24.75;54.46;101096.07;110026;1251;20847;-75
2023/08/15 06:28:48;;;;;;;;;26.00;24.00;;;;;24.77;54.98;101095.61;110023;1251;22870;-73
2023/08/15 06:31:14;;;;;;;;;20.00;20.00;;;;;24.85;54.83;101099.75;110006;1251;20160;-72
2023/08/15 06:33:40;;;;;;;;;23.00;21.00;;;;;24.91;54.97;101100.96;110052;1251;22171;-76
2023/08/15 06:36:06;;;;;;;;;21.00;20.00;;;;;24.95;54.89;101100.31;110071;1250;20139;-75
2023/08/15 06:38:32;;;;;;;;;;;;;;;24.98;55.00;101103.16;110067;1266;20077;-74
2023/08/15 06:40:58;;;;;;;;;19.00;17.00;;;;;25.01;55.04;101100.40;110067;1250;20801;-75
2023/08/15 06:43:24;;;;;;;;;14.00;14.00;;;;;25.04;55.22;101097.83;110019;1266;22229;-75
2023/08/15 06:45:50;;;;;;;;;15.00;15.00;;;;;25.06;55.21;101094.36;109973;1250;18867;-73
2023/08/15 06:48:16;;;;;;;;;15.00;15.00;;;;;25.08;55.36;101092.80;109968;1250;21307;-74
2023/08/15 06:50:42;;;;;;;;;17.00;15.00;;;;;25.12;55.30;101094.90;110026;1258;19974;-74
2023/08/15 06:53:08;;;;;;;;;15.00;14.00;;;;;25.13;55.25;101094.73;110025;1251;20163;-75
2023/08/15 06:55:35;;;;;;;;;14.00;12.00;;;;;25.11;55.33;101093.11;110041;1258;19217;-75
2023/08/15 06:58:01;;;;;;;;;12.00;12.00;;;;;25.12;55.26;101091.84;110026;1250;20008;-75
2023/08/15 07:00:27;;;;;;;;;14.00;14.00;;;;;25.14;55.28;101092.30;110062;1260;20264;-73
2023/08/15 07:02:53;;;;;;;;;12.00;12.00;;;;;25.14;55.27;101090.98;110058;1250;20918;-73
2023/08/15 07:05:20;;;;;;;;;15.00;14.00;;;;;25.16;55.34;101094.25;110063;1265;19915;-73
2023/08/15 07:07:46;;;;;;;;;15.00;13.00;;;;;25.17;55.00;101092.33;110058;1265;18849;-75
2023/08/15 07:10:12;;;;;;;;;10.00;10.00;;;;;25.17;55.25;101094.67;110043;1266;19453;-75
2023/08/15 07:12:38;;;;;;;;;11.00;11.00;;;;;25.25;55.11;101096.67;109968;1260;20175;-75
2023/08/15 07:15:04;;;;;;;;;13.00;12.00;;;;;25.25;55.21;101098.20;110021;1266;20123;-74
2023/08/15 07:17:30;;;;;;;;;10.00;8.00;;;;;25.28;55.49;101093.89;110039;1266;22213;-75
2023/08/15 07:19:56;;;;;;;;;11.00;10.00;;;;;25.28;55.48;101089.45;110036;1251;20094;-75
2023/08/15 07:22:23;;;;;;;;;10.50;10.00;;;;;25.28;55.47;101083.90;110015;1266;22229;-75
2023/08/15 07:24:49;;;;;;;;;10.00;10.00;;;;;25.30;55.49;101082.30;110048;1265;19368;-75
2023/08/15 07:27:15;;;;;;;;;9.00;8.67;;;;;25.33;55.54;101083.91;110036;1266;22065;-75
2023/08/15 07:29:41;;;;;;;;;;;;;;;25.34;55.53;101081.48;110011;1251;21840;-74
2023/08/15 07:32:08;;;;;;;;;9.00;9.00;;;;;25.39;54.92;101082.79;109850;1251;224061;-76
2023/08/15 07:34:34;;;;;;;;;11.00;11.00;;;;;25.40;55.15;101079.33;109968;1267;22146;-76
2023/08/15 07:37:00;;;;;;;;;8.00;8.00;;;;;25.38;55.27;101078.03;109993;1251;20013;-74
2023/08/15 07:39:26;;;;;;;;;11.00;10.00;;;;;25.36;55.23;101080.64;110015;1250;20770;-76
2023/08/15 07:41:52;;;;;;;;;10.00;8.00;;;;;25.41;55.09;101078.15;109990;1251;18353;-76
2023/08/15 07:44:19;;;;;;;;;9.00;7.50;;;;;25.44;55.09;101076.09;110032;1266;18683;-77
2023/08/15 07:46:45;;;;;;;;;8.00;8.00;;;;;25.43;55.37;101073.80;110025;1250;22018;-76
2023/08/15 07:49:11;;;;;;;;;8.00;8.00;;;;;25.41;55.57;101071.67;110047;1265;20589;-75
2023/08/15 07:51:37;;;;;;;;;10.00;8.00;;;;;25.46;54.93;101070.19;110009;1251;20371;-75
2023/08/15 07:54:04;;;;;;;;;10.00;8.00;;;;;25.56;55.04;101069.75;110003;1266;19342;-75
2023/08/15 07:56:33;;;;;;;;;7.00;7.00;;;;;25.51;55.47;101066.30;110012;1250;18859;-76
2023/08/15 07:58:59;;;;;;;;;7.00;7.00;;;;;25.48;55.62;101066.21;110007;1253;21274;-76
2023/08/15 08:01:25;;;;;;;;;8.00;8.00;;;;;25.49;55.66;101063.74;110018;1260;20636;-76
2023/08/15 08:03:51;;;;;;;;;7.00;6.33;;;;;25.48;55.72;101064.84;110008;1266;22197;-77
2023/08/15 08:06:18;;;;;;;;;7.50;7.50;;;;;25.48;55.59;101068.84;109986;1251;19995;-77
2023/08/15 08:08:44;;;;;;;;;8.00;8.00;;;;;25.51;55.54;101062.46;110022;1251;20894;-78
2023/08/15 08:11:10;;;;;;;;;7.00;7.00;;;;;25.50;55.57;101059.23;110018;1265;19540;-78
2023/08/15 08:13:37;;;;;;;;;10.50;10.00;;;;;25.51;55.86;101057.23;110000;1265;21446;-75
2023/08/15 08:16:04;;;;;;;;;10.50;9.00;;;;;25.56;54.55;101058.27;110004;1266;19611;-76
2023/08/15 08:18:31;;;;;;;;;8.00;8.00;;;;;25.61;54.43;101057.82;110003;1260;20923;-76
2023/08/15 08:20:58;;;;;;;;;7.50;7.50;;;;;25.58;54.80;101062.23;110022;1266;18713;-75
2023/08/15 08:23:24;;;;;;;;;7.00;7.00;;;;;25.59;54.84;101061.09;110046;1266;19371;-74
2023/08/15 08:25:51;;;;;;;;;7.50;7.00;;;;;25.58;54.78;101066.52;110016;1265;18462;-77
2023/08/15 08:28:18;;;;;;;;;6.50;6.00;;;;;25.58;55.13;101063.72;110052;1250;18655;-76
2023/08/15 08:30:45;;;;;;;;;7.00;7.00;;;;;25.60;55.07;101059.04;110037;1266;19507;-76
2023/08/15 08:33:14;;;;;;;;;8.00;7.50;;;;;25.59;55.23;101060.41;110024;1266;18347;-77
2023/08/15 08:35:41;;;;;;;;;6.00;6.00;;;;;25.61;55.24;101061.84;110027;1266;18774;-76
2023/08/15 08:38:08;;;;;;;;;7.00;5.50;;;;;25.62;55.13;101057.98;110038;1265;20680;-78
2023/08/15 08:40:35;;;;;;;;;6.00;6.00;;;;;25.60;55.20;101055.08;110039;1266;18691;-77
2023/08/15 08:43:03;;;;;;;;;8.00;6.00;;;;;25.59;55.17;101049.56;110047;1266;20233;-78
2023/08/15 08:45:31;;;;;;;;;5.33;5.33;;;;;25.57;55.44;101056.34;109984;1260;19403;-73
2023/08/15 08:47:58;;;;;;;;;6.00;6.00;;;;;25.60;55.27;101053.61;110010;1265;19813;-73
2023/08/15 08:50:24;;;;;;;;;5.00;5.00;;;;;25.61;55.34;101052.60;109994;1266;19925;-75
2023/08/15 08:52:54;;;;;;;;;6.00;3.00;;;;;25.58;55.36;101049.90;109986;1265;19789;-75
2023/08/15 08:55:28;;;;;;;;;7.00;6.00;;;;;25.58;55.43;101048.75;110010;1266;18809;-75
2023/08/15 08:57:55;;;;;;;;;6.00;6.00;;;;;25.58;55.42;101042.67;110020;1266;19917;-75
2023/08/15 09:00:21;;;;;;;;;6.00;6.00;;;;;25.57;55.36;101045.42;110024;1260;19723;-75
2023/08/15 09:02:48;;;;;;;;;5.00;5.00;;;;;25.54;55.54;101046.17;110023;1266;18240;-75
2023/08/15 09:05:15;;;;;;;;;5.00;5.00;;;;;25.53;55.43;101047.01;110041;1266;20042;-76
2023/08/15 09:07:42;;;;;;;;;5.00;5.00;;;;;25.54;55.38;101048.38;110020;1265;20005;-76
2023/08/15 09:10:08;;;;;;;;;3.00;3.00;;;;;25.53;55.48;101048.11;110015;1266;20749;-76
2023/08/15 09:12:34;;;;;;;;;3.00;3.00;;;;;25.53;55.35;101047.94;110005;1251;20034;-78
2023/08/15 09:15:00;;;;;;;;;5.00;5.00;;;;;25.54;55.31;101052.54;110018;1251;20680;-76
2023/08/15 09:17:27;;;;;;;;;4.00;4.00;;;;;25.54;55.17;101049.35;109998;1265;19979;-75
2023/08/15 09:19:53;;;;;;;;;3.00;3.00;;;;;25.54;55.24;101052.77;110014;1266;18775;-76
2023/08/15 09:22:19;;;;;;;;;3.00;3.00;;;;;25.52;55.28;101050.92;110014;1251;20812;-74
2023/08/15 09:24:45;;;;;;;;;4.00;4.00;;;;;25.52;55.28;101046.86;110040;1265;22329;-74
2023/08/15 09:27:11;;;;;;;;;3.00;3.00;;;;;25.50;55.29;101047.48;110038;1265;20026;-76
2023/08/15 09:29:37;;;;;;;;;3.00;3.00;;;;;25.49;55.33;101042.45;110028;1266;19650;-75
2023/08/15 09:32:03;;;;;;;;;5.00;5.00;;;;;25.56;54.45;101040.77;110015;1266;19484;-76
2023/08/15 09:34:29;;;;;;;;;3.00;3.00;;;;;25.56;54.65;101033.41;110011;1266;20074;-74
2023/08/15 09:36:55;;;;;;;;;3.00;3.00;;;;;25.54;54.83;101027.09;109989;1266;19331;-74
2023/08/15 09:39:21;;;;;;;;;3.00;3.00;;;;;25.49;55.08;101032.46;109989;1251;19392;-75
2023/08/15 09:41:48;;;;;;;;;5.00;3.00;;;;;25.48;55.20;101031.94;110030;1266;20225;-76
2023/08/15 09:44:14;;;;;;;;;3.00;3.00;;;;;25.46;55.24;101032.45;110048;1259;19376;-76
2023/08/15 09:46:40;;;;;;;;;5.00;5.00;;;;;25.45;55.45;101030.44;110030;1250;19671;-76
2023/08/15 09:49:06;;;;;;;;;3.00;3.00;;;;;25.43;55.58;101030.41;110018;1260;22616;-76
2023/08/15 09:51:33;;;;;;;;;3.00;3.00;;;;;25.45;55.63;101031.70;110019;1265;19345;-77
2023/08/15 09:53:59;;;;;;;;;2.50;2.50;;;;;25.44;55.77;101025.02;110045;1251;19664;-78
2023/08/15 09:56:25;;;;;;;;;3.00;3.00;;;;;25.43;55.74;101029.96;110011;1251;20157;-77
2023/08/15 09:58:51;;;;;;;;;5.00;2.00;;;;;25.44;55.74;101031.81;110023;1266;19468;-77
2023/08/15 10:01:18;;;;;;;;;3.00;3.00;;;;;25.44;55.63;101037.64;109990;1250;20016;-76
2023/08/15 10:03:45;;;;;;;;;3.00;3.00;;;;;25.44;55.84;101035.00;109962;1260;21928;-77
2023/08/15 10:06:11;;;;;;;;;2.50;2.50;;;;;25.44;55.72;101034.56;109972;1265;20715;-75
2023/08/15 10:08:37;;;;;;;;;3.00;3.00;;;;;25.45;55.63;101031.48;109970;1266;20539;-75
2023/08/15 10:11:03;;;;;;;;;3.00;3.00;;;;;25.45;55.58;101032.58;109996;1261;20176;-75
2023/08/15 10:13:30;;;;;;;;;2.00;2.00;;;;;25.43;55.69;101029.75;110013;1266;19817;-76
2023/08/15 10:16:00;;;;;;;;;2.33;2.33;;;;;25.44;55.51;101027.60;110046;1265;18622;-76
2023/08/15 10:18:26;;;;;;;;;2.00;2.00;;;;;25.41;55.71;101026.88;110029;1265;19422;-75
2023/08/15 10:20:53;;;;;;;;;5.00;3.00;;;;;25.39;55.77;101025.04;109976;1266;20883;-76
2023/08/15 10:23:21;;;;;;;;;2.00;2.00;;;;;25.39;55.93;101029.80;110030;1259;18383;-77
2023/08/15 10:25:47;;;;;;;;;2.00;2.00;;;;;25.40;56.30;101028.86;109953;1266;20080;-76
2023/08/15 10:28:15;;;;;;;;;2.00;2.00;;;;;25.40;56.11;101026.39;110025;1266;20931;-76
2023/08/15 10:30:42;;;;;;;;;2.00;2.00;;;;;25.41;56.24;101026.11;110052;1259;19006;-75
2023/08/15 10:33:08;;;;;;;;;2.50;2.50;;;;;25.40;56.09;101029.73;110041;1265;20004;-75
2023/08/15 10:35:36;;;;;;;;;2.00;2.00;;;;;25.39;56.12;101030.63;109945;1267;20021;-75
2023/08/15 10:38:03;;;;;;;;;2.00;2.00;;;;;25.41;55.91;101029.56;109948;1266;19001;-74
2023/08/15 10:40:30;;;;;;;;;2.00;2.00;;;;;25.39;56.05;101029.10;109975;1265;18635;-74
2023/08/15 10:42:57;;;;;;;;;2.00;2.00;;;;;25.38;56.10;101029.49;109908;1267;19525;-75
2023/08/15 10:45:24;;;;;;;;;2.00;2.00;;;;;25.36;56.20;101027.66;110058;1265;22821;-75
2023/08/15 10:47:53;;;;;;;;;2.00;2.00;;;;;25.36;56.16;101033.91;110088;1265;19870;-74
2023/08/15 10:50:22;;;;;;;;;2.00;2.00;;;;;25.32;56.15;101028.65;109987;1266;22479;-74
2023/08/15 10:52:49;;;;;;;;;2.00;2.00;;;;;25.31;56.22;101034.79;110040;1265;22745;-76
2023/08/15 10:55:15;;;;;;;;;5.00;3.00;;;;;25.37;56.18;101031.97;109997;1266;19110;-74
2023/08/15 10:57:42;;;;;;;;;3.00;3.00;;;;;25.46;55.88;101029.43;109993;1265;19719;-77
2023/08/15 11:00:12;;;;;;;;;2.00;2.00;;;;;25.52;56.10;101029.46;110027;1251;22550;-76
2023/08/15 11:02:42;;;;;;;;;2.00;2.00;;;;;25.51;56.27;101029.70;110021;1265;20367;-75
2023/08/15 11:05:09;;;;;;;;;3.00;3.00;;;;;25.47;56.62;101032.39;109964;1265;22297;-73